Decatur Airport
KDEC : now visible

Airfield :











YOU CAN JOIN US ON...

 
LOGIN :

Register | Disclaimer

   EN    FR    IT 

 









Legend :    VFR   Marginal VFR   IFR   Intensive IFR   Very Intensive IFR
Visi :
Ceiling :
>= 8 km
>= 3000ft
5 to 8 km
1000 to 3000 ft
1500m to 5 km
500 to 1000 ft
800 to 1500m
200 to 500 ft
< 800m
< 200 ft
Symbols :   Thunderstorms  Fog  Heavy snow  Heavy precipitations  Wind > 20 kt






- Airport Elevation : 682 ft
- IATA code : DEC


KDEC - Decatur

CURRENT METAR :
  • 110319Z AUTO 19019G27KT 2SM -RA BR OVC008 08/08 A2932 RMK AO2 PK WND 19028/0304 P0000 T00830083

EXPIRED METARs :
  • 110254Z 19019G30KT 5SM -RA BR BKN008 OVC012 08/08 A2933 RMK AO2 PK WND 19030/0246 SLP933 P0001 60001 T00780078 58014
  • 110214Z 20018G30KT 4SM -RA BR BKN009 OVC014 08/08 A2935 RMK AO2 PK WND 19030/0205 P0000 T00830078
  • 110154Z 20017G33KT 5SM -RA BR BKN012 OVC017 08/08 A2936 RMK AO2 PK WND 20033/0145 RAE04B48 SLP942 P0000 T00830078
  • 110054Z 21020G32KT 9SM -RA SCT018 BKN022 OVC028 09/08 A2938 RMK AO2 PK WND 18032/0035 RAB54 SLP947 P0000 T00940078
  • 110038Z 20020G32KT 10SM SCT020 BKN029 OVC100 10/08 A2937 RMK AO2 PK WND 18032/0035 T01000078

TAF KDEC
Valid from the 11 at 03:00 until the 12 at 00:00 UTC


110259Z 1103/1124 21020G30KT 4SM -SHRA BR OVC007
FM110400 24015G25KT 3SM -SHRA BR OVC007
FM111300 27016G26KT 5SM -SHRA BR OVC007
FM111700 27015G25KT P6SM VCSH OVC012
FM112300 29012G21KT P6SM BKN035
KZKC FIR / North America



MET'MAP, your aeronautical weather chart ! - Copyright ORBIFLY December 2007 - Disclaimer

ORBIFLY MET'MAP TEAM :

Programming & Development : Alexandra Zaïnal
Concept & original design : Baudouin d'Aumeries
Assistance for programming : Marc-Olivier Méhu
Technical & hardware support : Manuel Goepfert

Contact : metmap@orbifly.com




SOURCES & CREDITS :

   NOAA       Earth
Advisory